sensor_id;sensor_type;location;lat;lon;timestamp;P1;durP1;ratioP1;P2;durP2;ratioP2
52067;SDS011;60237;52.338;21.228;2023-04-28T00:01:10;119.63;;;25.20;;
52067;SDS011;60237;52.338;21.228;2023-04-28T00:03:37;155.20;;;28.65;;
52067;SDS011;60237;52.338;21.228;2023-04-28T00:06:04;179.68;;;30.42;;
52067;SDS011;60237;52.338;21.228;2023-04-28T00:08:31;77.72;;;22.48;;
52067;SDS011;60237;52.338;21.228;2023-04-28T00:10:58;134.57;;;27.90;;
52067;SDS011;60237;52.338;21.228;2023-04-28T00:13:25;68.18;;;21.10;;
52067;SDS011;60237;52.338;21.228;2023-04-28T00:15:52;146.10;;;29.02;;
52067;SDS011;60237;52.338;21.228;2023-04-28T00:18:19;180.82;;;29.48;;
52067;SDS011;60237;52.338;21.228;2023-04-28T00:20:46;103.45;;;24.42;;
52067;SDS011;60237;52.338;21.228;2023-04-28T00:23:12;129.45;;;28.23;;
52067;SDS011;60237;52.338;21.228;2023-04-28T00:25:39;167.15;;;31.85;;
52067;SDS011;60237;52.338;21.228;2023-04-28T00:28:05;104.00;;;25.27;;
52067;SDS011;60237;52.338;21.228;2023-04-28T00:30:32;105.97;;;25.77;;
52067;SDS011;60237;52.338;21.228;2023-04-28T00:32:58;156.07;;;28.17;;
52067;SDS011;60237;52.338;21.228;2023-04-28T00:35:25;79.80;;;24.83;;
52067;SDS011;60237;52.338;21.228;2023-04-28T00:37:51;107.57;;;27.80;;
52067;SDS011;60237;52.338;21.228;2023-04-28T00:40:18;142.65;;;30.15;;
52067;SDS011;60237;52.338;21.228;2023-04-28T00:42:44;139.98;;;29.95;;
52067;SDS011;60237;52.338;21.228;2023-04-28T00:45:11;103.00;;;25.20;;
52067;SDS011;60237;52.338;21.228;2023-04-28T00:47:37;129.45;;;27.98;;
52067;SDS011;60237;52.338;21.228;2023-04-28T00:50:04;124.63;;;26.33;;
52067;SDS011;60237;52.338;21.228;2023-04-28T00:52:32;98.88;;;26.27;;
52067;SDS011;60237;52.338;21.228;2023-04-28T00:54:58;122.95;;;29.00;;
52067;SDS011;60237;52.338;21.228;2023-04-28T00:57:25;123.00;;;29.15;;
52067;SDS011;60237;52.338;21.228;2023-04-28T00:59:52;92.72;;;26.35;;
52067;SDS011;60237;52.338;21.228;2023-04-28T01:02:19;105.45;;;24.83;;
52067;SDS011;60237;52.338;21.228;2023-04-28T01:04:45;106.72;;;27.58;;
52067;SDS011;60237;52.338;21.228;2023-04-28T01:07:13;131.07;;;30.17;;
52067;SDS011;60237;52.338;21.228;2023-04-28T01:09:41;110.63;;;26.00;;
52067;SDS011;60237;52.338;21.228;2023-04-28T01:12:08;129.80;;;28.40;;
52067;SDS011;60237;52.338;21.228;2023-04-28T01:14:47;100.68;;;24.08;;
52067;SDS011;60237;52.338;21.228;2023-04-28T01:17:14;145.93;;;27.83;;
52067;SDS011;60237;52.338;21.228;2023-04-28T01:19:41;91.30;;;24.13;;
52067;SDS011;60237;52.338;21.228;2023-04-28T01:22:08;95.22;;;24.50;;
52067;SDS011;60237;52.338;21.228;2023-04-28T01:24:42;229.35;;;36.97;;
52067;SDS011;60237;52.338;21.228;2023-04-28T01:27:09;107.53;;;27.00;;
52067;SDS011;60237;52.338;21.228;2023-04-28T01:29:39;86.20;;;25.70;;
52067;SDS011;60237;52.338;21.228;2023-04-28T01:32:05;140.60;;;32.28;;
52067;SDS011;60237;52.338;21.228;2023-04-28T01:34:32;86.72;;;31.60;;
52067;SDS011;60237;52.338;21.228;2023-04-28T01:36:59;105.47;;;37.75;;
52067;SDS011;60237;52.338;21.228;2023-04-28T01:39:25;138.30;;;39.17;;
52067;SDS011;60237;52.338;21.228;2023-04-28T01:41:52;67.00;;;32.28;;
52067;SDS011;60237;52.338;21.228;2023-04-28T01:44:18;96.18;;;36.45;;
52067;SDS011;60237;52.338;21.228;2023-04-28T01:46:47;186.40;;;45.28;;
52067;SDS011;60237;52.338;21.228;2023-04-28T01:49:13;127.25;;;38.95;;
52067;SDS011;60237;52.338;21.228;2023-04-28T01:51:40;162.93;;;41.97;;
52067;SDS011;60237;52.338;21.228;2023-04-28T01:54:08;172.68;;;41.88;;
52067;SDS011;60237;52.338;21.228;2023-04-28T01:56:35;96.57;;;31.55;;
52067;SDS011;60237;52.338;21.228;2023-04-28T01:59:02;90.22;;;31.38;;
52067;SDS011;60237;52.338;21.228;2023-04-28T02:01:29;439.70;;;65.88;;
52067;SDS011;60237;52.338;21.228;2023-04-28T02:03:56;117.25;;;32.40;;
52067;SDS011;60237;52.338;21.228;2023-04-28T02:06:23;97.43;;;29.25;;
52067;SDS011;60237;52.338;21.228;2023-04-28T02:08:49;134.52;;;31.73;;
52067;SDS011;60237;52.338;21.228;2023-04-28T02:11:16;104.60;;;29.27;;
52067;SDS011;60237;52.338;21.228;2023-04-28T02:13:42;118.72;;;31.27;;
52067;SDS011;60237;52.338;21.228;2023-04-28T02:16:09;175.07;;;35.75;;
52067;SDS011;60237;52.338;21.228;2023-04-28T02:18:36;78.43;;;27.55;;
52067;SDS011;60237;52.338;21.228;2023-04-28T02:21:08;120.57;;;32.22;;
52067;SDS011;60237;52.338;21.228;2023-04-28T02:23:36;174.45;;;36.25;;
52067;SDS011;60237;52.338;21.228;2023-04-28T02:26:04;76.03;;;26.75;;
52067;SDS011;60237;52.338;21.228;2023-04-28T02:28:30;97.03;;;28.05;;
52067;SDS011;60237;52.338;21.228;2023-04-28T02:31:07;217.43;;;40.72;;
52067;SDS011;60237;52.338;21.228;2023-04-28T02:33:35;103.03;;;26.95;;
52067;SDS011;60237;52.338;21.228;2023-04-28T02:36:02;151.40;;;34.13;;
52067;SDS011;60237;52.338;21.228;2023-04-28T02:38:29;47.95;;;23.52;;
52067;SDS011;60237;52.338;21.228;2023-04-28T02:40:57;92.97;;;26.23;;
52067;SDS011;60237;52.338;21.228;2023-04-28T02:43:24;111.38;;;29.65;;
52067;SDS011;60237;52.338;21.228;2023-04-28T02:45:51;121.07;;;30.20;;
52067;SDS011;60237;52.338;21.228;2023-04-28T02:48:18;122.28;;;28.92;;
52067;SDS011;60237;52.338;21.228;2023-04-28T02:50:45;169.15;;;34.75;;
52067;SDS011;60237;52.338;21.228;2023-04-28T02:53:11;98.95;;;30.08;;
52067;SDS011;60237;52.338;21.228;2023-04-28T02:55:38;111.30;;;29.25;;
52067;SDS011;60237;52.338;21.228;2023-04-28T02:58:04;138.52;;;32.25;;
52067;SDS011;60237;52.338;21.228;2023-04-28T03:00:31;63.92;;;23.13;;
52067;SDS011;60237;52.338;21.228;2023-04-28T03:02:58;78.97;;;25.10;;
52067;SDS011;60237;52.338;21.228;2023-04-28T03:05:25;93.80;;;24.90;;
52067;SDS011;60237;52.338;21.228;2023-04-28T03:07:52;97.22;;;26.27;;
52067;SDS011;60237;52.338;21.228;2023-04-28T03:10:19;95.82;;;24.90;;
52067;SDS011;60237;52.338;21.228;2023-04-28T03:12:45;134.85;;;29.50;;
52067;SDS011;60237;52.338;21.228;2023-04-28T03:15:12;129.30;;;27.92;;
52067;SDS011;60237;52.338;21.228;2023-04-28T03:17:39;113.40;;;25.42;;
52067;SDS011;60237;52.338;21.228;2023-04-28T03:20:08;105.70;;;22.75;;
52067;SDS011;60237;52.338;21.228;2023-04-28T03:22:35;106.45;;;24.98;;
52067;SDS011;60237;52.338;21.228;2023-04-28T03:25:02;113.82;;;23.13;;
52067;SDS011;60237;52.338;21.228;2023-04-28T03:27:32;115.25;;;23.15;;
52067;SDS011;60237;52.338;21.228;2023-04-28T03:30:01;80.15;;;21.90;;
52067;SDS011;60237;52.338;21.228;2023-04-28T03:32:28;105.35;;;25.35;;
52067;SDS011;60237;52.338;21.228;2023-04-28T03:34:54;128.40;;;26.55;;
52067;SDS011;60237;52.338;21.228;2023-04-28T03:37:21;96.47;;;24.02;;
52067;SDS011;60237;52.338;21.228;2023-04-28T03:39:48;132.93;;;26.85;;
52067;SDS011;60237;52.338;21.228;2023-04-28T03:42:14;119.88;;;27.90;;
52067;SDS011;60237;52.338;21.228;2023-04-28T03:44:50;117.75;;;26.13;;
52067;SDS011;60237;52.338;21.228;2023-04-28T03:47:16;117.60;;;27.58;;
52067;SDS011;60237;52.338;21.228;2023-04-28T03:49:43;185.20;;;31.90;;
52067;SDS011;60237;52.338;21.228;2023-04-28T03:52:10;81.28;;;22.63;;
52067;SDS011;60237;52.338;21.228;2023-04-28T03:54:37;106.28;;;24.45;;
52067;SDS011;60237;52.338;21.228;2023-04-28T03:57:04;160.40;;;28.88;;
52067;SDS011;60237;52.338;21.228;2023-04-28T03:59:31;94.72;;;23.10;;
52067;SDS011;60237;52.338;21.228;2023-04-28T04:01:58;96.22;;;22.85;;
52067;SDS011;60237;52.338;21.228;2023-04-28T04:04:25;170.23;;;30.50;;
52067;SDS011;60237;52.338;21.228;2023-04-28T04:06:52;139.25;;;28.73;;
52067;SDS011;60237;52.338;21.228;2023-04-28T04:09:19;121.70;;;27.63;;
52067;SDS011;60237;52.338;21.228;2023-04-28T04:11:45;143.32;;;28.65;;
52067;SDS011;60237;52.338;21.228;2023-04-28T04:14:12;65.15;;;20.95;;
52067;SDS011;60237;52.338;21.228;2023-04-28T04:16:39;133.63;;;27.85;;
52067;SDS011;60237;52.338;21.228;2023-04-28T04:19:06;189.55;;;31.98;;
52067;SDS011;60237;52.338;21.228;2023-04-28T04:21:43;132.27;;;30.73;;
52067;SDS011;60237;52.338;21.228;2023-04-28T04:24:09;101.03;;;25.23;;
52067;SDS011;60237;52.338;21.228;2023-04-28T04:26:36;152.25;;;29.23;;
52067;SDS011;60237;52.338;21.228;2023-04-28T04:29:17;104.38;;;26.70;;
52067;SDS011;60237;52.338;21.228;2023-04-28T04:31:44;138.90;;;30.67;;
52067;SDS011;60237;52.338;21.228;2023-04-28T04:34:11;103.03;;;23.08;;
52067;SDS011;60237;52.338;21.228;2023-04-28T04:36:38;100.22;;;19.80;;
52067;SDS011;60237;52.338;21.228;2023-04-28T04:39:05;141.18;;;22.63;;
52067;SDS011;60237;52.338;21.228;2023-04-28T04:41:31;98.10;;;37.05;;
52067;SDS011;60237;52.338;21.228;2023-04-28T04:44:18;112.57;;;31.33;;
52067;SDS011;60237;52.338;21.228;2023-04-28T04:46:48;95.95;;;32.75;;
52067;SDS011;60237;52.338;21.228;2023-04-28T04:49:16;112.65;;;32.95;;
52067;SDS011;60237;52.338;21.228;2023-04-28T04:51:43;176.02;;;61.03;;
52067;SDS011;60237;52.338;21.228;2023-04-28T04:54:10;118.70;;;52.50;;
52067;SDS011;60237;52.338;21.228;2023-04-28T04:56:38;93.45;;;44.60;;
52067;SDS011;60237;52.338;21.228;2023-04-28T04:59:05;160.55;;;57.65;;
52067;SDS011;60237;52.338;21.228;2023-04-28T05:01:44;178.60;;;85.75;;
52067;SDS011;60237;52.338;21.228;2023-04-28T05:04:10;121.82;;;46.45;;
52067;SDS011;60237;52.338;21.228;2023-04-28T05:06:37;176.70;;;33.20;;
52067;SDS011;60237;52.338;21.228;2023-04-28T05:09:04;110.05;;;24.88;;
52067;SDS011;60237;52.338;21.228;2023-04-28T05:11:31;112.65;;;24.25;;
52067;SDS011;60237;52.338;21.228;2023-04-28T05:13:58;142.98;;;28.02;;
52067;SDS011;60237;52.338;21.228;2023-04-28T05:16:24;119.90;;;25.05;;
52067;SDS011;60237;52.338;21.228;2023-04-28T05:19:01;134.05;;;26.15;;
52067;SDS011;60237;52.338;21.228;2023-04-28T05:21:27;127.82;;;29.88;;
52067;SDS011;60237;52.338;21.228;2023-04-28T05:23:54;94.38;;;24.33;;
52067;SDS011;60237;52.338;21.228;2023-04-28T05:26:22;119.78;;;25.60;;
52067;SDS011;60237;52.338;21.228;2023-04-28T05:28:52;96.43;;;24.55;;
52067;SDS011;60237;52.338;21.228;2023-04-28T05:31:19;108.05;;;23.35;;
52067;SDS011;60237;52.338;21.228;2023-04-28T05:33:46;153.27;;;26.45;;
52067;SDS011;60237;52.338;21.228;2023-04-28T05:36:13;74.70;;;20.30;;
52067;SDS011;60237;52.338;21.228;2023-04-28T05:38:43;106.90;;;21.60;;
52067;SDS011;60237;52.338;21.228;2023-04-28T05:41:10;131.65;;;23.02;;
52067;SDS011;60237;52.338;21.228;2023-04-28T05:43:38;78.75;;;20.50;;
52067;SDS011;60237;52.338;21.228;2023-04-28T05:46:05;91.05;;;19.92;;
52067;SDS011;60237;52.338;21.228;2023-04-28T05:48:44;170.20;;;26.45;;
52067;SDS011;60237;52.338;21.228;2023-04-28T05:51:11;126.43;;;22.38;;
52067;SDS011;60237;52.338;21.228;2023-04-28T05:53:37;80.10;;;18.20;;
52067;SDS011;60237;52.338;21.228;2023-04-28T05:56:04;118.22;;;20.70;;
52067;SDS011;60237;52.338;21.228;2023-04-28T05:58:31;67.78;;;16.08;;
52067;SDS011;60237;52.338;21.228;2023-04-28T06:00:58;100.82;;;18.05;;
52067;SDS011;60237;52.338;21.228;2023-04-28T06:03:24;121.95;;;19.42;;
52067;SDS011;60237;52.338;21.228;2023-04-28T06:05:52;69.72;;;16.85;;
52067;SDS011;60237;52.338;21.228;2023-04-28T06:08:18;163.73;;;21.50;;
52067;SDS011;60237;52.338;21.228;2023-04-28T06:10:45;151.68;;;20.85;;
52067;SDS011;60237;52.338;21.228;2023-04-28T06:13:12;94.40;;;15.98;;
52067;SDS011;60237;52.338;21.228;2023-04-28T06:15:40;103.53;;;17.73;;
52067;SDS011;60237;52.338;21.228;2023-04-28T06:18:08;164.60;;;21.80;;
52067;SDS011;60237;52.338;21.228;2023-04-28T06:20:35;117.22;;;18.45;;
52067;SDS011;60237;52.338;21.228;2023-04-28T06:23:02;113.72;;;16.58;;
52067;SDS011;60237;52.338;21.228;2023-04-28T06:25:29;115.63;;;16.98;;
52067;SDS011;60237;52.338;21.228;2023-04-28T06:27:56;105.35;;;20.58;;
52067;SDS011;60237;52.338;21.228;2023-04-28T06:30:23;68.03;;;17.80;;
52067;SDS011;60237;52.338;21.228;2023-04-28T06:32:50;139.80;;;29.63;;
52067;SDS011;60237;52.338;21.228;2023-04-28T06:35:17;77.75;;;18.13;;
52067;SDS011;60237;52.338;21.228;2023-04-28T06:37:43;107.68;;;20.08;;
52067;SDS011;60237;52.338;21.228;2023-04-28T06:40:10;157.52;;;23.35;;
52067;SDS011;60237;52.338;21.228;2023-04-28T06:42:40;79.72;;;15.85;;
52067;SDS011;60237;52.338;21.228;2023-04-28T06:45:16;163.57;;;23.73;;
52067;SDS011;60237;52.338;21.228;2023-04-28T06:47:43;122.07;;;38.13;;
52067;SDS011;60237;52.338;21.228;2023-04-28T06:50:10;116.47;;;26.00;;
52067;SDS011;60237;52.338;21.228;2023-04-28T06:52:37;112.57;;;46.03;;
52067;SDS011;60237;52.338;21.228;2023-04-28T06:55:07;74.80;;;14.48;;
52067;SDS011;60237;52.338;21.228;2023-04-28T06:57:35;89.03;;;15.05;;
52067;SDS011;60237;52.338;21.228;2023-04-28T07:00:03;158.10;;;18.90;;
52067;SDS011;60237;52.338;21.228;2023-04-28T07:02:30;62.85;;;10.25;;
52067;SDS011;60237;52.338;21.228;2023-04-28T07:04:57;88.28;;;12.75;;
52067;SDS011;60237;52.338;21.228;2023-04-28T07:07:23;148.30;;;16.95;;
52067;SDS011;60237;52.338;21.228;2023-04-28T07:09:50;108.47;;;14.07;;
52067;SDS011;60237;52.338;21.228;2023-04-28T07:12:18;72.28;;;10.57;;
52067;SDS011;60237;52.338;21.228;2023-04-28T07:14:45;109.22;;;13.57;;
52067;SDS011;60237;52.338;21.228;2023-04-28T07:17:12;77.80;;;12.65;;
52067;SDS011;60237;52.338;21.228;2023-04-28T07:19:38;91.45;;;12.57;;
52067;SDS011;60237;52.338;21.228;2023-04-28T07:22:05;116.95;;;15.40;;
52067;SDS011;60237;52.338;21.228;2023-04-28T07:24:31;57.53;;;9.85;;
52067;SDS011;60237;52.338;21.228;2023-04-28T07:26:58;56.97;;;10.25;;
52067;SDS011;60237;52.338;21.228;2023-04-28T07:29:24;93.53;;;12.07;;
52067;SDS011;60237;52.338;21.228;2023-04-28T07:31:54;64.07;;;9.48;;
52067;SDS011;60237;52.338;21.228;2023-04-28T07:34:20;75.68;;;10.88;;
52067;SDS011;60237;52.338;21.228;2023-04-28T07:36:47;118.57;;;14.50;;
52067;SDS011;60237;52.338;21.228;2023-04-28T07:39:14;76.43;;;11.40;;
52067;SDS011;60237;52.338;21.228;2023-04-28T07:41:41;75.82;;;11.27;;
52067;SDS011;60237;52.338;21.228;2023-04-28T07:44:07;65.85;;;10.30;;
52067;SDS011;60237;52.338;21.228;2023-04-28T07:46:35;74.78;;;9.65;;
52067;SDS011;60237;52.338;21.228;2023-04-28T07:49:02;81.70;;;8.73;;
52067;SDS011;60237;52.338;21.228;2023-04-28T07:51:30;88.15;;;10.00;;
52067;SDS011;60237;52.338;21.228;2023-04-28T07:53:57;73.20;;;7.60;;
52067;SDS011;60237;52.338;21.228;2023-04-28T07:56:24;62.80;;;8.27;;
52067;SDS011;60237;52.338;21.228;2023-04-28T07:58:51;74.28;;;8.38;;
52067;SDS011;60237;52.338;21.228;2023-04-28T08:01:18;62.83;;;7.90;;
52067;SDS011;60237;52.338;21.228;2023-04-28T08:03:44;69.60;;;7.80;;
52067;SDS011;60237;52.338;21.228;2023-04-28T08:06:11;96.30;;;9.95;;
52067;SDS011;60237;52.338;21.228;2023-04-28T08:08:38;80.63;;;9.25;;
52067;SDS011;60237;52.338;21.228;2023-04-28T08:11:06;90.07;;;9.98;;
52067;SDS011;60237;52.338;21.228;2023-04-28T08:13:33;84.93;;;10.20;;
52067;SDS011;60237;52.338;21.228;2023-04-28T08:16:00;83.55;;;8.80;;
52067;SDS011;60237;52.338;21.228;2023-04-28T08:18:27;97.50;;;9.80;;
52067;SDS011;60237;52.338;21.228;2023-04-28T08:20:54;62.15;;;7.93;;
52067;SDS011;60237;52.338;21.228;2023-04-28T08:23:20;125.10;;;11.63;;
52067;SDS011;60237;52.338;21.228;2023-04-28T08:25:48;65.03;;;7.50;;
52067;SDS011;60237;52.338;21.228;2023-04-28T08:28:15;77.85;;;8.45;;
52067;SDS011;60237;52.338;21.228;2023-04-28T08:30:41;112.97;;;10.65;;
52067;SDS011;60237;52.338;21.228;2023-04-28T08:33:08;80.22;;;8.60;;
52067;SDS011;60237;52.338;21.228;2023-04-28T08:35:35;68.47;;;8.52;;
52067;SDS011;60237;52.338;21.228;2023-04-28T08:38:01;123.65;;;12.32;;
52067;SDS011;60237;52.338;21.228;2023-04-28T08:40:28;55.17;;;6.90;;
52067;SDS011;60237;52.338;21.228;2023-04-28T08:42:56;358.00;;;26.33;;
52067;SDS011;60237;52.338;21.228;2023-04-28T08:45:23;115.03;;;10.85;;
52067;SDS011;60237;52.338;21.228;2023-04-28T08:47:53;50.97;;;6.63;;
52067;SDS011;60237;52.338;21.228;2023-04-28T08:50:20;57.60;;;6.90;;
52067;SDS011;60237;52.338;21.228;2023-04-28T08:52:48;68.68;;;8.27;;
52067;SDS011;60237;52.338;21.228;2023-04-28T08:55:17;65.97;;;7.03;;
52067;SDS011;60237;52.338;21.228;2023-04-28T08:57:44;91.95;;;8.40;;
52067;SDS011;60237;52.338;21.228;2023-04-28T09:00:11;113.18;;;11.25;;
52067;SDS011;60237;52.338;21.228;2023-04-28T09:02:38;151.00;;;12.07;;
52067;SDS011;60237;52.338;21.228;2023-04-28T09:05:11;100.35;;;10.00;;
52067;SDS011;60237;52.338;21.228;2023-04-28T09:07:39;82.78;;;8.98;;
52067;SDS011;60237;52.338;21.228;2023-04-28T09:10:22;63.40;;;7.85;;
52067;SDS011;60237;52.338;21.228;2023-04-28T09:12:52;70.50;;;8.10;;
52067;SDS011;60237;52.338;21.228;2023-04-28T09:17:52;141.73;;;12.10;;
52067;SDS011;60237;52.338;21.228;2023-04-28T09:20:20;65.68;;;7.28;;
52067;SDS011;60237;52.338;21.228;2023-04-28T09:22:48;59.03;;;6.63;;
52067;SDS011;60237;52.338;21.228;2023-04-28T09:25:16;132.07;;;11.23;;
52067;SDS011;60237;52.338;21.228;2023-04-28T09:27:42;66.40;;;6.55;;
52067;SDS011;60237;52.338;21.228;2023-04-28T09:30:09;78.90;;;7.90;;
52067;SDS011;60237;52.338;21.228;2023-04-28T09:32:36;131.43;;;11.75;;
52067;SDS011;60237;52.338;21.228;2023-04-28T09:35:03;172.80;;;12.57;;
52067;SDS011;60237;52.338;21.228;2023-04-28T09:37:30;58.22;;;5.80;;
52067;SDS011;60237;52.338;21.228;2023-04-28T09:40:01;139.65;;;12.05;;
52067;SDS011;60237;52.338;21.228;2023-04-28T09:42:30;55.88;;;5.85;;
52067;SDS011;60237;52.338;21.228;2023-04-28T09:44:57;55.00;;;7.00;;
52067;SDS011;60237;52.338;21.228;2023-04-28T09:47:24;119.22;;;10.32;;
52067;SDS011;60237;52.338;21.228;2023-04-28T09:52:22;64.20;;;6.28;;
52067;SDS011;60237;52.338;21.228;2023-04-28T09:54:50;115.30;;;9.98;;
52067;SDS011;60237;52.338;21.228;2023-04-28T09:57:17;52.33;;;5.85;;
52067;SDS011;60237;52.338;21.228;2023-04-28T09:59:46;56.10;;;6.00;;
52067;SDS011;60237;52.338;21.228;2023-04-28T10:02:14;72.72;;;6.85;;
52067;SDS011;60237;52.338;21.228;2023-04-28T10:05:01;89.28;;;8.02;;
52067;SDS011;60237;52.338;21.228;2023-04-28T10:07:30;71.03;;;6.63;;
52067;SDS011;60237;52.338;21.228;2023-04-28T10:10:00;83.80;;;7.90;;
52067;SDS011;60237;52.338;21.228;2023-04-28T10:12:27;102.40;;;7.78;;
52067;SDS011;60237;52.338;21.228;2023-04-28T10:14:53;47.67;;;5.38;;
52067;SDS011;60237;52.338;21.228;2023-04-28T10:17:20;68.03;;;7.13;;
52067;SDS011;60237;52.338;21.228;2023-04-28T10:19:48;88.50;;;7.75;;
52067;SDS011;60237;52.338;21.228;2023-04-28T10:25:07;84.03;;;7.57;;
52067;SDS011;60237;52.338;21.228;2023-04-28T10:27:38;75.07;;;6.97;;
52067;SDS011;60237;52.338;21.228;2023-04-28T10:30:09;56.22;;;6.32;;
52067;SDS011;60237;52.338;21.228;2023-04-28T10:38:18;83.22;;;8.30;;
52067;SDS011;60237;52.338;21.228;2023-04-28T10:40:49;43.70;;;5.28;;
52067;SDS011;60237;52.338;21.228;2023-04-28T10:45:58;83.70;;;8.07;;
52067;SDS011;60237;52.338;21.228;2023-04-28T10:56:09;80.22;;;7.95;;
52067;SDS011;60237;52.338;21.228;2023-04-28T10:58:36;72.75;;;7.05;;
52067;SDS011;60237;52.338;21.228;2023-04-28T11:03:55;96.35;;;9.40;;
52067;SDS011;60237;52.338;21.228;2023-04-28T11:06:36;55.78;;;5.63;;
52067;SDS011;60237;52.338;21.228;2023-04-28T11:16:50;140.13;;;11.27;;
52067;SDS011;60237;52.338;21.228;2023-04-28T11:19:18;69.30;;;7.10;;
52067;SDS011;60237;52.338;21.228;2023-04-28T11:21:45;77.05;;;7.22;;
52067;SDS011;60237;52.338;21.228;2023-04-28T11:24:13;187.40;;;14.95;;
52067;SDS011;60237;52.338;21.228;2023-04-28T11:26:40;93.45;;;8.13;;
52067;SDS011;60237;52.338;21.228;2023-04-28T11:29:07;47.63;;;5.57;;
52067;SDS011;60237;52.338;21.228;2023-04-28T11:31:34;80.68;;;7.53;;
52067;SDS011;60237;52.338;21.228;2023-04-28T11:34:04;304.75;;;19.50;;
52067;SDS011;60237;52.338;21.228;2023-04-28T11:36:35;91.25;;;8.50;;
52067;SDS011;60237;52.338;21.228;2023-04-28T11:39:03;65.25;;;6.50;;
52067;SDS011;60237;52.338;21.228;2023-04-28T11:41:34;46.80;;;5.50;;
52067;SDS011;60237;52.338;21.228;2023-04-28T11:44:10;125.50;;;10.88;;
52067;SDS011;60237;52.338;21.228;2023-04-28T11:46:47;70.43;;;6.97;;
52067;SDS011;60237;52.338;21.228;2023-04-28T11:49:16;165.38;;;13.00;;
52067;SDS011;60237;52.338;21.228;2023-04-28T11:51:43;77.50;;;7.68;;
52067;SDS011;60237;52.338;21.228;2023-04-28T11:54:12;61.35;;;6.18;;
52067;SDS011;60237;52.338;21.228;2023-04-28T11:56:40;187.82;;;13.75;;
52067;SDS011;60237;52.338;21.228;2023-04-28T11:59:08;40.58;;;4.78;;
52067;SDS011;60237;52.338;21.228;2023-04-28T12:01:50;163.88;;;13.48;;
52067;SDS011;60237;52.338;21.228;2023-04-28T12:07:05;128.25;;;11.30;;
52067;SDS011;60237;52.338;21.228;2023-04-28T12:09:32;25.75;;;3.33;;
52067;SDS011;60237;52.338;21.228;2023-04-28T12:12:06;64.78;;;6.45;;
52067;SDS011;60237;52.338;21.228;2023-04-28T12:17:01;56.30;;;5.90;;
52067;SDS011;60237;52.338;21.228;2023-04-28T12:19:27;89.53;;;8.48;;
52067;SDS011;60237;52.338;21.228;2023-04-28T12:21:57;126.63;;;10.50;;
52067;SDS011;60237;52.338;21.228;2023-04-28T12:24:24;62.70;;;6.28;;
52067;SDS011;60237;52.338;21.228;2023-04-28T12:26:52;56.20;;;5.93;;
52067;SDS011;60237;52.338;21.228;2023-04-28T12:29:35;138.25;;;11.15;;
52067;SDS011;60237;52.338;21.228;2023-04-28T12:34:29;114.03;;;9.45;;
52067;SDS011;60237;52.338;21.228;2023-04-28T12:36:57;77.57;;;7.60;;
52067;SDS011;60237;52.338;21.228;2023-04-28T12:39:24;53.08;;;6.15;;
52067;SDS011;60237;52.338;21.228;2023-04-28T12:41:51;236.65;;;16.35;;
52067;SDS011;60237;52.338;21.228;2023-04-28T12:44:18;55.35;;;5.40;;
52067;SDS011;60237;52.338;21.228;2023-04-28T12:46:45;61.67;;;5.85;;
52067;SDS011;60237;52.338;21.228;2023-04-28T12:49:12;102.03;;;8.77;;
52067;SDS011;60237;52.338;21.228;2023-04-28T12:51:39;56.05;;;5.82;;
52067;SDS011;60237;52.338;21.228;2023-04-28T12:54:05;111.22;;;9.73;;
52067;SDS011;60237;52.338;21.228;2023-04-28T12:56:32;104.55;;;8.95;;
52067;SDS011;60237;52.338;21.228;2023-04-28T12:58:59;63.92;;;6.45;;
52067;SDS011;60237;52.338;21.228;2023-04-28T13:01:27;66.88;;;6.80;;
52067;SDS011;60237;52.338;21.228;2023-04-28T13:03:55;169.45;;;13.52;;
52067;SDS011;60237;52.338;21.228;2023-04-28T13:06:22;39.95;;;4.80;;
52067;SDS011;60237;52.338;21.228;2023-04-28T13:08:48;57.03;;;5.72;;
52067;SDS011;60237;52.338;21.228;2023-04-28T13:11:15;116.75;;;9.45;;
52067;SDS011;60237;52.338;21.228;2023-04-28T13:16:14;106.93;;;9.10;;
52067;SDS011;60237;52.338;21.228;2023-04-28T13:18:41;84.68;;;7.53;;
52067;SDS011;60237;52.338;21.228;2023-04-28T13:21:07;61.47;;;6.50;;
52067;SDS011;60237;52.338;21.228;2023-04-28T13:23:34;170.52;;;11.50;;
52067;SDS011;60237;52.338;21.228;2023-04-28T13:26:01;124.63;;;10.65;;
52067;SDS011;60237;52.338;21.228;2023-04-28T13:28:29;31.42;;;3.88;;
52067;SDS011;60237;52.338;21.228;2023-04-28T13:30:55;91.55;;;8.23;;
52067;SDS011;60237;52.338;21.228;2023-04-28T13:33:22;125.28;;;10.60;;
52067;SDS011;60237;52.338;21.228;2023-04-28T13:35:48;59.92;;;6.35;;
52067;SDS011;60237;52.338;21.228;2023-04-28T13:38:15;70.10;;;6.60;;
52067;SDS011;60237;52.338;21.228;2023-04-28T13:40:42;148.85;;;12.95;;
52067;SDS011;60237;52.338;21.228;2023-04-28T13:43:08;94.40;;;8.85;;
52067;SDS011;60237;52.338;21.228;2023-04-28T13:45:35;76.57;;;7.35;;
52067;SDS011;60237;52.338;21.228;2023-04-28T13:48:02;145.20;;;11.02;;
52067;SDS011;60237;52.338;21.228;2023-04-28T13:50:29;70.28;;;7.35;;
52067;SDS011;60237;52.338;21.228;2023-04-28T13:52:55;83.97;;;7.45;;
52067;SDS011;60237;52.338;21.228;2023-04-28T13:55:22;75.07;;;7.32;;
52067;SDS011;60237;52.338;21.228;2023-04-28T13:57:53;89.50;;;8.20;;
52067;SDS011;60237;52.338;21.228;2023-04-28T14:00:19;99.47;;;8.30;;
52067;SDS011;60237;52.338;21.228;2023-04-28T14:02:46;80.25;;;7.75;;
52067;SDS011;60237;52.338;21.228;2023-04-28T14:05:15;60.85;;;6.32;;
52067;SDS011;60237;52.338;21.228;2023-04-28T14:07:45;83.28;;;8.05;;
52067;SDS011;60237;52.338;21.228;2023-04-28T14:10:11;143.70;;;10.90;;
52067;SDS011;60237;52.338;21.228;2023-04-28T14:12:38;101.25;;;9.15;;
52067;SDS011;60237;52.338;21.228;2023-04-28T14:15:04;189.32;;;15.68;;
52067;SDS011;60237;52.338;21.228;2023-04-28T14:17:32;115.32;;;9.60;;
52067;SDS011;60237;52.338;21.228;2023-04-28T14:20:00;53.45;;;6.03;;
52067;SDS011;60237;52.338;21.228;2023-04-28T14:22:27;67.32;;;6.90;;
52067;SDS011;60237;52.338;21.228;2023-04-28T14:24:54;139.73;;;12.55;;
52067;SDS011;60237;52.338;21.228;2023-04-28T14:27:20;90.05;;;7.82;;
52067;SDS011;60237;52.338;21.228;2023-04-28T14:29:47;105.75;;;9.23;;
52067;SDS011;60237;52.338;21.228;2023-04-28T14:32:14;108.63;;;9.30;;
52067;SDS011;60237;52.338;21.228;2023-04-28T14:34:41;65.32;;;7.07;;
52067;SDS011;60237;52.338;21.228;2023-04-28T14:37:08;83.53;;;8.40;;
52067;SDS011;60237;52.338;21.228;2023-04-28T14:39:35;110.72;;;10.93;;
52067;SDS011;60237;52.338;21.228;2023-04-28T14:42:02;31.83;;;5.30;;
52067;SDS011;60237;52.338;21.228;2023-04-28T14:44:29;76.43;;;8.20;;
52067;SDS011;60237;52.338;21.228;2023-04-28T14:46:55;101.82;;;9.77;;
52067;SDS011;60237;52.338;21.228;2023-04-28T14:49:22;75.18;;;8.90;;
52067;SDS011;60237;52.338;21.228;2023-04-28T14:51:49;64.72;;;7.38;;
52067;SDS011;60237;52.338;21.228;2023-04-28T14:54:16;104.38;;;8.77;;